createdAt,value
2023-01-29T00:00:10.186Z,23.58
2023-01-29T00:02:38.402Z,24.67
2023-01-29T00:05:25.993Z,23.90
2023-01-29T00:07:55.458Z,22.52
2023-01-29T00:10:25.166Z,21.80
2023-01-29T00:12:53.057Z,23.52
2023-01-29T00:15:21.820Z,23.75
2023-01-29T00:17:51.204Z,24.10
2023-01-29T00:20:19.509Z,22.98
2023-01-29T00:22:47.571Z,23.00
2023-01-29T00:25:15.461Z,23.02
2023-01-29T00:27:44.838Z,23.48
2023-01-29T00:30:13.823Z,23.15
2023-01-29T00:32:42.202Z,22.70
2023-01-29T00:35:10.881Z,23.30
2023-01-29T00:37:39.065Z,24.55
2023-01-29T00:40:08.245Z,22.73
2023-01-29T00:42:53.994Z,24.80
2023-01-29T00:45:23.373Z,23.02
2023-01-29T00:47:51.208Z,22.20
2023-01-29T00:50:19.538Z,22.70
2023-01-29T00:52:49.602Z,22.42
2023-01-29T00:55:17.602Z,23.10
2023-01-29T00:57:45.507Z,23.58
2023-01-29T01:00:17.192Z,24.15
2023-01-29T01:03:04.154Z,23.92
2023-01-29T01:05:32.068Z,23.42
2023-01-29T01:08:01.033Z,22.40
2023-01-29T01:10:30.858Z,24.15
2023-01-29T01:13:00.979Z,24.23
2023-01-29T01:15:31.166Z,22.30
2023-01-29T01:18:04.066Z,24.13
2023-01-29T01:20:34.513Z,21.88
2023-01-29T01:23:02.414Z,22.67
2023-01-29T01:25:30.654Z,22.25
2023-01-29T01:28:03.601Z,21.58
2023-01-29T01:30:33.005Z,22.65
2023-01-29T01:33:02.264Z,23.50
2023-01-29T01:35:30.209Z,21.50
2023-01-29T01:37:58.218Z,23.52
2023-01-29T01:40:27.668Z,23.60
2023-01-29T01:42:57.262Z,23.35
2023-01-29T01:45:28.306Z,23.17
2023-01-29T01:48:00.456Z,23.25
2023-01-29T01:50:34.505Z,23.85
2023-01-29T01:53:08.759Z,23.13
2023-01-29T01:55:41.292Z,21.90
2023-01-29T01:58:13.273Z,21.70
2023-01-29T02:00:41.418Z,23.48
2023-01-29T02:03:28.782Z,21.73
2023-01-29T02:06:17.978Z,21.02
2023-01-29T02:09:11.904Z,21.15
2023-01-29T02:11:39.984Z,21.70
2023-01-29T02:14:09.852Z,22.23
2023-01-29T02:16:38.260Z,22.48
2023-01-29T02:19:14.136Z,20.88
2023-01-29T02:22:12.907Z,21.08
2023-01-29T02:25:09.516Z,20.98
2023-01-29T02:28:07.766Z,19.48
2023-01-29T02:30:38.831Z,20.02
2023-01-29T02:33:15.040Z,20.80
2023-01-29T02:35:47.511Z,18.90
2023-01-29T02:38:27.371Z,17.83
2023-01-29T02:40:59.312Z,18.30
2023-01-29T02:43:35.422Z,18.45
2023-01-29T02:46:12.441Z,17.65
2023-01-29T02:48:45.933Z,16.80
2023-01-29T02:51:21.132Z,17.05
2023-01-29T02:53:55.109Z,18.25
2023-01-29T02:56:28.925Z,17.02
2023-01-29T02:59:04.107Z,17.15
2023-01-29T03:01:36.516Z,16.08
2023-01-29T03:04:10.503Z,17.17
2023-01-29T03:06:42.166Z,17.90
2023-01-29T03:09:14.731Z,18.13
2023-01-29T03:11:47.183Z,19.00
2023-01-29T03:14:19.999Z,18.45
2023-01-29T03:16:51.967Z,18.38
2023-01-29T03:19:26.938Z,18.92
2023-01-29T03:22:00.128Z,18.42
2023-01-29T03:24:54.509Z,18.65
2023-01-29T03:27:43.482Z,18.00
2023-01-29T03:30:33.920Z,17.52
2023-01-29T03:33:05.681Z,19.52
2023-01-29T03:35:39.455Z,18.05
2023-01-29T03:38:13.033Z,17.75
2023-01-29T03:40:46.873Z,18.27
2023-01-29T03:43:23.067Z,17.13
2023-01-29T03:46:01.257Z,17.70
2023-01-29T03:48:36.250Z,18.83
2023-01-29T03:51:21.088Z,17.02
2023-01-29T03:53:54.471Z,18.95
2023-01-29T03:56:41.962Z,17.80
2023-01-29T03:59:21.622Z,16.83
2023-01-29T04:01:54.289Z,18.00
2023-01-29T04:04:25.866Z,17.00
2023-01-29T04:06:58.718Z,17.90
2023-01-29T04:09:32.532Z,18.05
2023-01-29T04:12:06.555Z,18.83
2023-01-29T04:14:34.547Z,19.55
2023-01-29T04:17:10.142Z,19.35
2023-01-29T04:19:38.312Z,18.88
2023-01-29T04:22:11.339Z,18.25
2023-01-29T04:24:39.430Z,19.30
2023-01-29T04:27:20.868Z,18.63
2023-01-29T04:29:59.279Z,17.88
2023-01-29T04:32:33.558Z,19.05
2023-01-29T04:35:10.514Z,19.50
2023-01-29T04:37:45.193Z,19.80
2023-01-29T04:40:21.705Z,19.33
2023-01-29T04:42:55.999Z,18.05
2023-01-29T04:45:37.542Z,18.42
2023-01-29T04:48:15.195Z,18.90
2023-01-29T04:50:48.276Z,19.63
2023-01-29T04:53:21.545Z,19.17
2023-01-29T04:55:52.849Z,19.08
2023-01-29T04:58:29.778Z,19.05
2023-01-29T05:00:59.817Z,19.38
2023-01-29T05:03:30.649Z,20.63
2023-01-29T05:06:01.302Z,19.30
2023-01-29T05:08:31.886Z,20.13
2023-01-29T05:11:02.175Z,19.88
2023-01-29T05:13:32.662Z,19.13
2023-01-29T05:16:05.934Z,19.20
2023-01-29T05:18:35.885Z,19.75
2023-01-29T05:21:08.115Z,20.30
2023-01-29T05:23:36.521Z,18.35
2023-01-29T05:26:05.402Z,18.20
2023-01-29T05:28:32.432Z,18.30
2023-01-29T05:31:00.454Z,17.40
2023-01-29T05:33:33.031Z,17.88
2023-01-29T05:36:02.897Z,16.67
2023-01-29T05:38:30.746Z,15.65
2023-01-29T05:40:59.969Z,17.05
2023-01-29T05:43:28.212Z,15.35
2023-01-29T05:45:57.378Z,16.52
2023-01-29T05:48:25.951Z,16.08
2023-01-29T05:50:54.115Z,16.05
2023-01-29T05:53:23.344Z,16.08
2023-01-29T05:55:51.225Z,15.77
2023-01-29T05:58:19.715Z,16.20
2023-01-29T06:00:47.678Z,16.00
2023-01-29T06:03:16.985Z,16.52
2023-01-29T06:05:44.965Z,16.00
2023-01-29T06:08:13.280Z,17.27
2023-01-29T06:10:42.534Z,15.90
2023-01-29T06:13:10.513Z,16.63
2023-01-29T06:15:40.633Z,16.83
2023-01-29T06:18:08.602Z,15.80
2023-01-29T06:20:36.533Z,16.75
2023-01-29T06:23:04.458Z,16.50
2023-01-29T06:25:32.377Z,18.48
2023-01-29T06:28:01.712Z,17.45
2023-01-29T06:30:29.932Z,17.08
2023-01-29T06:32:59.208Z,18.15
2023-01-29T06:35:27.156Z,17.35
2023-01-29T06:37:55.087Z,17.27
2023-01-29T06:40:23.034Z,18.23
2023-01-29T06:42:50.922Z,19.48
2023-01-29T06:45:20.345Z,17.88
2023-01-29T06:47:48.279Z,17.63
2023-01-29T06:50:16.582Z,18.67
2023-01-29T06:52:44.688Z,17.60
2023-01-29T06:55:12.663Z,16.90
2023-01-29T06:57:40.510Z,17.05
2023-01-29T07:00:10.251Z,17.55
2023-01-29T07:02:39.546Z,16.90
2023-01-29T07:05:07.944Z,17.90
2023-01-29T07:07:36.715Z,17.25
2023-01-29T07:10:04.996Z,16.88
2023-01-29T07:12:34.221Z,16.23
2023-01-29T07:15:02.135Z,16.48
2023-01-29T07:17:30.019Z,15.52
2023-01-29T07:20:01.600Z,15.75
2023-01-29T07:22:29.482Z,17.60
2023-01-29T07:24:57.362Z,15.55
2023-01-29T07:27:25.365Z,15.82
2023-01-29T07:29:53.293Z,16.58
2023-01-29T07:32:21.159Z,16.02
2023-01-29T07:34:49.343Z,15.98
2023-01-29T07:37:18.604Z,15.68
2023-01-29T07:39:47.632Z,17.38
2023-01-29T07:42:15.494Z,16.48
2023-01-29T07:44:43.487Z,16.52
2023-01-29T07:47:11.415Z,16.65
2023-01-29T07:49:39.256Z,17.55
2023-01-29T07:52:07.227Z,16.60
2023-01-29T07:54:36.419Z,18.10
2023-01-29T07:57:04.477Z,19.85
2023-01-29T07:59:32.576Z,17.42
2023-01-29T08:02:00.781Z,18.55
2023-01-29T08:04:28.712Z,16.58
2023-01-29T08:06:56.788Z,17.85
2023-01-29T08:09:25.968Z,18.40
2023-01-29T08:11:55.196Z,17.45
2023-01-29T08:14:23.789Z,18.15
2023-01-29T08:16:51.834Z,17.65
2023-01-29T08:19:19.917Z,18.52
2023-01-29T08:21:47.908Z,17.50
2023-01-29T08:24:15.891Z,19.40
2023-01-29T08:26:43.773Z,18.92
2023-01-29T08:29:13.636Z,20.08
2023-01-29T08:31:41.650Z,18.75
2023-01-29T08:34:09.534Z,19.65
2023-01-29T08:36:37.704Z,20.10
2023-01-29T08:39:05.610Z,19.88
2023-01-29T08:41:33.575Z,20.52
2023-01-29T08:44:04.181Z,20.80
2023-01-29T08:46:33.473Z,20.75
2023-01-29T08:49:01.400Z,20.65
2023-01-29T08:51:29.328Z,20.85
2023-01-29T08:53:57.217Z,21.23
2023-01-29T08:56:25.119Z,21.40
2023-01-29T08:58:52.975Z,21.02
2023-01-29T09:01:20.918Z,21.63
2023-01-29T09:03:50.513Z,22.02
2023-01-29T09:06:18.619Z,20.88
2023-01-29T09:08:46.528Z,22.67
2023-01-29T09:11:14.351Z,21.50
2023-01-29T09:13:42.191Z,23.00
2023-01-29T09:16:11.011Z,21.48
2023-01-29T09:18:38.982Z,22.83
2023-01-29T09:21:08.457Z,23.15
2023-01-29T09:23:36.371Z,22.77
2023-01-29T09:26:04.600Z,23.08
2023-01-29T09:28:32.745Z,23.10
2023-01-29T09:31:02.468Z,23.50
2023-01-29T09:33:30.953Z,23.50
2023-01-29T09:35:58.872Z,23.00
2023-01-29T09:38:28.170Z,23.70
2023-01-29T09:41:06.861Z,23.60
2023-01-29T09:43:44.207Z,24.27
2023-01-29T09:46:21.191Z,22.50
2023-01-29T09:48:53.173Z,23.65
2023-01-29T09:51:29.303Z,22.55
2023-01-29T09:54:10.160Z,22.67
2023-01-29T09:56:38.328Z,21.70
2023-01-29T09:59:06.378Z,24.63
2023-01-29T10:01:41.999Z,23.52
2023-01-29T10:04:44.272Z,24.83
2023-01-29T10:07:25.998Z,23.80
2023-01-29T10:10:10.355Z,23.60
2023-01-29T10:12:54.517Z,24.38
2023-01-29T10:15:35.369Z,25.15
2023-01-29T10:18:42.341Z,23.52
2023-01-29T10:21:24.903Z,23.15
2023-01-29T10:24:00.133Z,23.50
2023-01-29T10:26:30.382Z,23.23
2023-01-29T10:29:00.531Z,24.75
2023-01-29T10:31:33.201Z,24.73
2023-01-29T10:34:04.680Z,24.90
2023-01-29T10:36:37.981Z,24.92
2023-01-29T10:39:05.958Z,25.07
2023-01-29T10:41:49.683Z,24.87
2023-01-29T10:44:31.486Z,24.10
2023-01-29T10:47:30.717Z,23.50
2023-01-29T10:50:32.797Z,25.67
2023-01-29T10:53:17.305Z,24.37
2023-01-29T10:55:56.639Z,23.80
2023-01-29T10:58:32.741Z,25.27
2023-01-29T11:01:01.432Z,23.83
2023-01-29T11:03:31.572Z,25.83
2023-01-29T11:06:11.616Z,25.23
2023-01-29T11:08:44.523Z,23.97
2023-01-29T11:11:17.201Z,25.37
2023-01-29T11:13:54.039Z,24.40
2023-01-29T11:16:22.117Z,25.33
2023-01-29T11:18:55.960Z,26.20
2023-01-29T11:21:25.665Z,24.47
2023-01-29T11:24:07.748Z,25.60
2023-01-29T11:26:39.201Z,25.23
2023-01-29T11:29:38.925Z,25.93
2023-01-29T11:32:09.596Z,25.10
2023-01-29T11:34:57.885Z,25.90
2023-01-29T11:37:34.251Z,25.97
2023-01-29T11:40:02.171Z,25.43
2023-01-29T11:42:33.689Z,26.90
2023-01-29T11:45:03.204Z,25.40
2023-01-29T11:47:32.381Z,25.33
2023-01-29T11:50:02.816Z,26.07
2023-01-29T11:52:37.981Z,25.33
2023-01-29T11:55:14.253Z,25.80
2023-01-29T11:57:44.780Z,25.47
2023-01-29T12:00:23.470Z,25.70
2023-01-29T12:02:56.992Z,24.67
2023-01-29T12:05:27.055Z,26.13
2023-01-29T12:07:57.330Z,26.57
2023-01-29T12:10:34.401Z,25.70
2023-01-29T12:13:07.522Z,26.40
2023-01-29T12:15:37.664Z,26.07
2023-01-29T12:18:14.149Z,25.20
2023-01-29T12:20:46.931Z,24.90
2023-01-29T12:23:28.383Z,25.20
2023-01-29T12:26:03.723Z,24.73
2023-01-29T12:28:40.358Z,24.40
2023-01-29T12:31:22.530Z,26.27
2023-01-29T12:33:54.927Z,25.37
2023-01-29T12:36:27.536Z,26.80
2023-01-29T12:38:56.447Z,26.47
2023-01-29T12:41:37.517Z,25.43
2023-01-29T12:44:12.787Z,24.87
2023-01-29T12:46:50.440Z,23.57
2023-01-29T12:49:23.435Z,26.50
2023-01-29T12:51:59.070Z,24.50
2023-01-29T12:54:36.011Z,24.50
2023-01-29T12:57:09.461Z,25.13
2023-01-29T12:59:43.037Z,25.17
2023-01-29T13:02:24.511Z,24.13
2023-01-29T13:04:58.483Z,25.03
2023-01-29T13:07:30.819Z,24.00
2023-01-29T13:10:05.632Z,25.00
2023-01-29T13:12:35.660Z,24.37
2023-01-29T13:15:15.719Z,24.33
2023-01-29T13:17:48.965Z,23.57
2023-01-29T13:20:22.463Z,24.20
2023-01-29T13:22:53.599Z,23.70
2023-01-29T13:25:22.072Z,25.20
2023-01-29T13:27:50.920Z,23.00
2023-01-29T13:30:29.461Z,23.90
2023-01-29T13:33:09.365Z,24.10
2023-01-29T13:35:41.454Z,22.13
2023-01-29T13:38:25.969Z,22.57
2023-01-29T13:40:56.783Z,23.47
2023-01-29T13:43:25.013Z,23.07
2023-01-29T13:45:54.925Z,23.70
2023-01-29T13:48:27.519Z,22.70
2023-01-29T13:50:57.747Z,22.50
2023-01-29T13:53:28.168Z,24.20
2023-01-29T13:55:56.287Z,22.23
2023-01-29T13:58:54.426Z,23.13
2023-01-29T14:01:56.176Z,21.40
2023-01-29T14:04:34.053Z,20.93
2023-01-29T14:07:03.723Z,20.97
2023-01-29T14:10:14.283Z,21.40
2023-01-29T14:12:47.366Z,19.33
2023-01-29T14:15:26.765Z,20.13
2023-01-29T14:18:06.719Z,19.17
2023-01-29T14:20:45.927Z,19.80
2023-01-29T14:23:25.021Z,18.33
2023-01-29T14:25:53.133Z,19.00
2023-01-29T14:28:26.170Z,17.37
2023-01-29T14:30:55.012Z,18.40
2023-01-29T14:33:29.917Z,18.60
2023-01-29T14:35:59.695Z,18.50
2023-01-29T14:38:29.636Z,16.90
2023-01-29T14:41:08.506Z,17.07
2023-01-29T14:43:36.524Z,16.27
2023-01-29T14:46:37.914Z,15.80
2023-01-29T14:49:07.942Z,14.43
2023-01-29T14:51:41.376Z,14.57
2023-01-29T14:54:25.497Z,10.90
2023-01-29T14:57:00.456Z,12.50
2023-01-29T14:59:34.323Z,12.07
2023-01-29T15:02:06.276Z,11.63
2023-01-29T15:04:41.654Z,8.80
2023-01-29T15:07:21.851Z,7.97
2023-01-29T15:09:57.287Z,6.60
2023-01-29T15:12:34.268Z,6.27
2023-01-29T15:15:08.369Z,6.13
2023-01-29T15:17:42.411Z,5.50
2023-01-29T15:20:32.521Z,6.00
2023-01-29T15:23:03.511Z,5.20
2023-01-29T15:25:36.757Z,4.00
2023-01-29T15:28:08.565Z,4.67
2023-01-29T15:30:39.094Z,4.33
2023-01-29T15:33:11.537Z,3.90
2023-01-29T15:35:41.201Z,4.13
2023-01-29T15:38:17.724Z,3.40
2023-01-29T15:40:53.471Z,3.87
2023-01-29T15:43:23.801Z,3.60
2023-01-29T15:45:53.207Z,3.67
2023-01-29T15:48:33.014Z,3.73
2023-01-29T15:51:04.689Z,3.73
2023-01-29T15:53:39.015Z,3.40
2023-01-29T15:56:11.421Z,3.80
2023-01-29T15:58:40.641Z,3.70
2023-01-29T16:01:09.704Z,3.97
2023-01-29T16:03:38.398Z,3.90
2023-01-29T16:06:08.807Z,4.10
2023-01-29T16:08:40.412Z,3.93
2023-01-29T16:11:09.377Z,4.10
2023-01-29T16:13:41.100Z,4.30
2023-01-29T16:16:21.966Z,4.63
2023-01-29T16:18:59.836Z,4.37
2023-01-29T16:21:32.983Z,4.37
2023-01-29T16:24:06.137Z,4.17
2023-01-29T16:26:37.290Z,4.07
2023-01-29T16:29:06.616Z,5.03
2023-01-29T16:31:36.440Z,3.80
2023-01-29T16:34:08.416Z,4.43
2023-01-29T16:36:36.553Z,4.60
2023-01-29T16:39:07.477Z,4.60
2023-01-29T16:41:38.261Z,4.00
2023-01-29T16:44:33.120Z,4.40
2023-01-29T16:47:12.693Z,4.87
2023-01-29T16:49:47.123Z,4.63
2023-01-29T16:52:20.625Z,4.77
2023-01-29T16:54:49.905Z,4.90
2023-01-29T16:57:22.118Z,5.10
2023-01-29T16:59:55.470Z,4.87
2023-01-29T17:02:27.860Z,4.53
2023-01-29T17:04:59.489Z,5.33
2023-01-29T17:07:27.921Z,5.10
2023-01-29T17:10:00.823Z,5.30
2023-01-29T17:12:31.317Z,5.53
2023-01-29T17:15:00.831Z,5.53
2023-01-29T17:17:33.685Z,4.67
2023-01-29T17:20:14.261Z,5.33
2023-01-29T17:22:42.270Z,5.70
2023-01-29T17:25:15.838Z,6.93
2023-01-29T17:27:51.443Z,8.00
2023-01-29T17:30:22.076Z,8.20
2023-01-29T17:32:50.022Z,9.73
2023-01-29T17:35:18.468Z,10.33
2023-01-29T17:37:46.594Z,10.33
2023-01-29T17:40:26.881Z,10.30
2023-01-29T17:42:54.737Z,10.37
2023-01-29T17:45:22.822Z,10.47
2023-01-29T17:47:50.762Z,9.60
2023-01-29T17:50:23.513Z,10.60
2023-01-29T17:52:51.519Z,11.03
2023-01-29T17:55:21.218Z,10.33
2023-01-29T17:57:49.342Z,10.20
2023-01-29T18:00:20.506Z,10.23
2023-01-29T18:02:48.475Z,9.30
2023-01-29T18:05:17.611Z,10.47
2023-01-29T18:07:47.839Z,9.73
2023-01-29T18:10:19.316Z,8.83
2023-01-29T18:12:48.907Z,9.27
2023-01-29T18:15:17.280Z,10.93
2023-01-29T18:17:45.998Z,9.73
2023-01-29T18:20:19.939Z,11.13
2023-01-29T18:22:48.396Z,9.80
2023-01-29T18:25:16.918Z,10.40
2023-01-29T18:27:45.404Z,9.83
2023-01-29T18:30:15.916Z,9.57
2023-01-29T18:32:43.834Z,10.60
2023-01-29T18:35:11.716Z,10.97
2023-01-29T18:37:39.628Z,10.50
2023-01-29T18:40:08.933Z,10.33
2023-01-29T18:42:36.899Z,10.23
2023-01-29T18:45:05.503Z,9.53
2023-01-29T18:47:35.012Z,9.83
2023-01-29T18:50:02.994Z,10.00
2023-01-29T18:52:30.924Z,9.23
2023-01-29T18:54:58.834Z,10.50
2023-01-29T18:58:33.750Z,10.47
2023-01-29T19:00:15.082Z,10.27
2023-01-29T19:02:46.351Z,10.70
2023-01-29T19:05:14.242Z,10.93
2023-01-29T19:07:42.230Z,10.47
2023-01-29T19:10:12.621Z,10.97
2023-01-29T19:12:42.194Z,10.77
2023-01-29T19:15:11.726Z,10.90
2023-01-29T19:17:39.688Z,11.83
2023-01-29T19:20:10.605Z,11.27
2023-01-29T19:22:38.477Z,11.53
2023-01-29T19:25:07.183Z,11.60
2023-01-29T19:27:35.423Z,13.00
2023-01-29T19:30:05.514Z,12.07
2023-01-29T19:32:34.072Z,12.83
2023-01-29T19:35:02.030Z,12.60
2023-01-29T19:37:31.432Z,13.13
2023-01-29T19:39:59.633Z,13.00
2023-01-29T19:42:30.167Z,13.23
2023-01-29T19:44:58.038Z,13.07
2023-01-29T19:47:25.922Z,12.63
2023-01-29T19:49:53.815Z,12.23
2023-01-29T19:52:51.165Z,11.50
2023-01-29T19:55:21.605Z,11.20
2023-01-29T19:57:49.471Z,11.87
2023-01-29T20:00:19.388Z,12.20
2023-01-29T20:02:47.330Z,12.33
2023-01-29T20:05:18.279Z,12.73
2023-01-29T20:07:46.436Z,11.83
2023-01-29T20:10:17.210Z,11.43
2023-01-29T20:12:47.330Z,12.23
2023-01-29T20:15:16.553Z,12.27
2023-01-29T20:17:45.650Z,11.93
2023-01-29T20:20:14.720Z,11.90
2023-01-29T20:22:42.824Z,12.17
2023-01-29T20:25:13.469Z,11.60
2023-01-29T20:27:41.711Z,12.07
2023-01-29T20:30:12.589Z,12.03
2023-01-29T20:32:40.529Z,11.47
2023-01-29T20:35:09.770Z,11.83
2023-01-29T20:37:37.790Z,11.63
2023-01-29T20:40:06.657Z,11.83
2023-01-29T20:42:34.835Z,12.93
2023-01-29T20:45:03.164Z,13.27
2023-01-29T20:47:34.555Z,11.63
2023-01-29T20:50:08.451Z,11.17
2023-01-29T20:52:36.595Z,12.20
2023-01-29T20:55:06.781Z,13.13
2023-01-29T20:57:35.527Z,12.37
2023-01-29T21:00:03.415Z,10.87
2023-01-29T21:02:32.652Z,12.27
2023-01-29T21:05:00.615Z,11.77
2023-01-29T21:07:28.745Z,12.07
2023-01-29T21:09:56.756Z,11.70
2023-01-29T21:12:24.902Z,10.80
2023-01-29T21:14:52.733Z,10.57
2023-01-29T21:17:20.772Z,11.37
2023-01-29T21:19:50.212Z,11.07
2023-01-29T21:22:18.228Z,10.33
2023-01-29T21:24:46.140Z,10.60
2023-01-29T21:27:13.964Z,10.17
2023-01-29T21:29:41.866Z,9.80
2023-01-29T21:32:10.049Z,10.67
2023-01-29T21:34:37.943Z,9.67
2023-01-29T21:37:07.260Z,9.07
2023-01-29T21:39:35.077Z,10.70
2023-01-29T21:42:20.612Z,10.03
2023-01-29T21:44:48.430Z,9.60
2023-01-29T21:47:16.450Z,9.97
2023-01-29T21:49:45.483Z,9.33
2023-01-29T21:52:16.320Z,9.13
2023-01-29T21:54:49.137Z,8.80
2023-01-29T21:57:20.215Z,8.47
2023-01-29T21:59:53.075Z,8.63
2023-01-29T22:02:23.952Z,8.43
2023-01-29T22:04:53.575Z,9.40
2023-01-29T22:07:22.799Z,9.20
2023-01-29T22:09:51.162Z,8.73
2023-01-29T22:12:19.280Z,8.77
2023-01-29T22:14:47.360Z,8.80
2023-01-29T22:17:16.499Z,9.33
2023-01-29T22:19:44.634Z,8.33
2023-01-29T22:22:15.238Z,8.63
2023-01-29T22:24:46.570Z,9.47
2023-01-29T22:27:15.025Z,9.03
2023-01-29T22:29:43.297Z,9.23
2023-01-29T22:32:13.175Z,9.90
2023-01-29T22:34:41.185Z,9.63
2023-01-29T22:37:09.212Z,10.13
2023-01-29T22:39:37.063Z,9.50
2023-01-29T22:42:06.528Z,8.90
2023-01-29T22:44:34.536Z,9.97
2023-01-29T22:47:02.575Z,8.77
2023-01-29T22:49:31.454Z,9.27
2023-01-29T22:52:11.447Z,9.20
2023-01-29T22:54:40.472Z,9.37
2023-01-29T22:57:11.632Z,9.10
2023-01-29T22:59:39.721Z,9.73
2023-01-29T23:02:07.685Z,9.67
2023-01-29T23:04:35.733Z,8.90
2023-01-29T23:07:03.857Z,8.73
2023-01-29T23:09:33.912Z,8.87
2023-01-29T23:12:02.914Z,9.23
2023-01-29T23:14:32.222Z,7.93
2023-01-29T23:17:00.144Z,8.00
2023-01-29T23:19:30.020Z,8.67
2023-01-29T23:21:57.909Z,8.07
2023-01-29T23:24:25.810Z,8.50
2023-01-29T23:27:11.280Z,8.93
2023-01-29T23:29:40.568Z,9.07
2023-01-29T23:32:08.458Z,8.10
2023-01-29T23:34:36.421Z,8.53
2023-01-29T23:37:04.496Z,7.37
2023-01-29T23:39:32.797Z,7.50
2023-01-29T23:42:00.943Z,7.57
2023-01-29T23:44:29.110Z,8.70
2023-01-29T23:46:58.372Z,8.07
2023-01-29T23:49:26.278Z,7.50
2023-01-29T23:51:54.215Z,7.53
2023-01-29T23:54:23.268Z,7.67
2023-01-29T23:56:51.208Z,7.83
2023-01-29T23:59:19.288Z,7.50
